Sandy, OR (97055)

3:18 AM PST on February 26, 2017 (GMT -0800)
Davis St - Gary St. | | Change Station
Active Advisory: Winter Weather Advisory

Elev 1037 ft 45.39 °N, 122.25 °W | Updated 13 seconds ago

Overcast
Overcast
35.0 °F
Feels Like 35 °F
N
0.0
Wind Variable Wind from SSW

Today
High -- | Low -- °F
--% Chance of Precip.
Yesterday
High -- | Low -- °F
Precip. -- in
Pressure 29.88 in
Visibility 10.0 miles
Clouds Overcast 4800 ft
Windchill 35 °F
Dew Point 33 °F
Humidity 91%
Rainfall 0.00 in
Snow Depth Not available.
6:51 AM 5:52 PM
Waning Crescent, 0% visible
METAR KTTD 261053Z AUTO 20007KT 10SM OVC048 05/01 A2988 RMK AO2 SLP118 T00500011
Pressure 29.88 in
Visibility 10.0 miles
Clouds Overcast 4800 ft
Windchill 35 °F
Dew Point 33 °F
Humidity 91%
Rainfall 0.00 in
Snow Depth Not available.
6:51 AM 5:52 PM
Waning Crescent, 0% visible
METAR KTTD 261053Z AUTO 20007KT 10SM OVC048 05/01 A2988 RMK AO2 SLP118 T00500011

Get Your Daily Forecast Email!

Thanks for signing up!

Be on the lookout for a verification email in your inbox.

You'll start receiving the daily forecast at 8 AM.

×

10-Day Weather Forecast

Almanac

Astronomy

Feb. 26, 2017 Rise Set
Actual Time
Civil Twilight
Nautical Twilight
Astronomical Twilight
Moon
Length of Visible Light
Length of Day
Tomorrow will be .
, % of the Moon is Illuminated

Today's Extremes

State Highs State Lows

Community

WunderPhotos

Upload Photos

1,962,540 photos uploaded!

WunderBlog® & News

Nearby

Air Quality

  Air Quality AQ Index Pollutant
Not available.

Snow Depth

Station Depth Elevation

Earthquake Activity

City Distance Mag. Time & Date
Minimum magnitude displayed is 2.5.

Coastal Water Temperatures

Place Temperature

Stations

Nearby Weather Stations

Station Location Temp. Windchill Dew Point Humidity Wind Precip. Elev Updated Type
                   

Watches & Warnings

Winter Weather Advisory
Issued: 8:42 PM PST Feb. 25, 2017 – National Weather Service

... Winter Weather Advisory remains in effect from 1 am to 4 PM
PST Sunday...

* timing... late tonight through late Monday afternoon. Heaviest
between 6 am and 10 am.

* Snow level... around 1000 feet.

* Snow accumulations... 3 to 5 inches. Spotty areas below 1000 feet
may see brief accumulations, but would be less than an inch.

* Impacts... roads will be snow covered and slick at times.

Precautionary/preparedness actions...

A Winter Weather Advisory for snow means that periods of snow
will cause primarily travel difficulties. Be prepared for snow
covered roads and limited visibilities, and use caution while
driving.